Thursday, November 15, 2018, 8:46 PM EST
Back to Local

KCXY, Harrisburg Capital City

Location: New Cumberland, PA, United States Lat: 40.217
Local Time: 8:46 PM EST ( 1:46 GMT) Lon: -76.85
Time Zone: US/Eastern Elev: 347 ft

Show me the last for .
Show Decoded

2018-11-15 19:56 METAR KCXY 160056Z 08008KT 2 1/2SM RA BR OVC008 01/M01 A2994 RMK AO2
                 RAB51FZRAE51 SLP143 P0012 I1007 T00061011 =
2018-11-15 19:53 METAR KCXY 160053Z 08009KT 2 1/2SM RA BR OVC008 01/M01 A2994 RMK AO2
                 RAB51FZRAE51 P0011 I1007 =
2018-11-15 18:56 METAR KCXY 152356Z 07010KT 4SM FZRA BR OVC010 00/M02 A2999 RMK AO2 CIG 007V013
                 SLP161 P0011 60076 I1007 I6011 T00001017 10000 21017 56059 =
2018-11-15 17:56 METAR KCXY 152256Z 06009KT 4SM FZRA BR OVC010 M01/M03 A3006 RMK AO2 CIG 008V013
                 SLP184 P0007 I1003 T10061028 =
2018-11-15 16:56 METAR KCXY 152156Z 07011KT 2SM FZRA BR OVC010 M01/M03 A3010 RMK AO2
                 UPB07E14B51E53FZRAB14E51B53SNE07 CIG 008V012 SLP199 P0009 I1001 T10111033 =
2018-11-15 16:16 METAR KCXY 152116Z 07009KT 2SM FZRA BKN010 OVC017 M01/M04 A3016 RMK AO2
                 UPB07E14FZRAB14SNE07 CIG 006V014 P0005 I1001 T10111039 =
2018-11-15 16:00 METAR KCXY 152100Z 08011G15KT 1SM R08/5500VP6000FT -SN BR BKN008 OVC020 M02/M04
                 A3017 RMK AO2 P0002 T10171039 =
2018-11-15 15:56 METAR KCXY 152056Z 08009KT 3/4SM R08/5500VP6000FT -SN BR BKN008 OVC020 M02/M03
                 A3017 RMK AO2 SLP221 P0012 60049 T10171033 58041 =
2018-11-15 15:53 METAR KCXY 152053Z 07007KT 1SM R08/5500VP6000FT -SN BR BKN008 OVC020 M02/M03
                 A3017 RMK AO2 P0011 =
2018-11-15 15:44 METAR KCXY 152044Z 07009KT 1/2SM R08/3500VP6000FT SN FZFG BKN010 OVC022 M02/M03
                 A3017 RMK AO2 P0009 T10171033 =
2018-11-15 15:36 METAR KCXY 152036Z 07010KT 1/4SM R08/2400V3500FT SN FZFG VV009 M02/M04 A3018 RMK
                 AO2 PRESFR P0007 T10171039 =
2018-11-15 15:23 METAR KCXY 152023Z 07010KT 1/2SM R08/3500V4500FT SN FZFG FEW006 OVC010 M02/M04
                 A3020 RMK AO2 P0005 T10171039 =
2018-11-15 14:56 METAR KCXY 151956Z 07008KT 1/4SM R08/3000V3500FT SN FZFG VV006 M02/M03 A3021 RMK
                 AO2 PRESFR SLP236 P0016 T10171033 =
2018-11-15 13:56 METAR KCXY 151856Z 07003KT 1/4SM R08/2400V4000FT +SN FZFG VV008 M02/M03 A3026
                 RMK AO2 SLP252 P0021 T10171033 =
2018-11-15 13:04 METAR KCXY 151804Z 08007KT 1/4SM R08/2000V2800FT +SN FZFG VV006 M02/M03 A3028
                 RMK AO2 PRESFR P0002 T10171033 =
2018-11-15 12:56 METAR KCXY 151756Z 06008KT 1/4SM R08/1800V2200FT +SN FZFG VV005 M02/M03 A3029
                 RMK AO2 PRESFR SLP263 P0016 60030 T10171033 10006 21017 58049 =
2018-11-15 12:47 METAR KCXY 151747Z 08006KT 1/4SM R08/1800V2200FT +SN FZFG VV005 M02/M03 A3031
                 RMK AO2 PRESFR P0013 T10171028 =
2018-11-15 11:56 METAR KCXY 151656Z 10007KT 1/4SM R08/2200V2800FT +SN FZFG VV006 M02/M03 A3038
                 RMK AO2 SLP292 P0011 T10171033 =
2018-11-15 11:22 METAR KCXY 151622Z 10009KT 1/4SM R08/2400V3000FT +SN FZFG VV007 M02/M03 A3040
                 RMK AO2 P0005 T10171033 =
2018-11-15 11:06 METAR KCXY 151606Z 10006KT 1/4SM R08/2400V3500FT +SN FZFG FEW004 OVC012 M02/M03
                 A3041 RMK AO2 P0002 T10171033 =
2018-11-15 10:56 METAR KCXY 151556Z 11006KT 1/2SM R08/4000V5500FT SN FZFG VV016 M02/M04 A3042 RMK
                 AO2 SLP306 P0003 T10171039 =
2018-11-15 10:05 METAR KCXY 151505Z 10011KT 3/4SM R08/5500V6000FT -SN VV019 M01/M04 A3043 RMK AO2
                 P0000 T10111044 =
2018-11-15 09:56 METAR KCXY 151456Z 10009KT 1SM R08/5500VP6000FT -SN OVC023 M01/M05 A3044 RMK AO2
                 UPB18E24SNB24 SLP312 P0000 60000 T10111050 56025 =
2018-11-15 09:51 METAR KCXY 151451Z 10010KT 1 1/4SM R08/5500VP6000FT -SN OVC023 M01/M06 A3044 RMK
                 AO2 UPB18E24SNB24 P0000 =
2018-11-15 09:44 METAR KCXY 151444Z 10009KT 2 1/2SM -SN OVC027 M01/M06 A3044 RMK AO2
                 UPB18E24SNB24 P0000 T10061061 =
2018-11-15 08:56 METAR KCXY 151356Z 10012KT 10SM BKN035 OVC090 00/M08 A3046 RMK AO2 SLP321
                 T00001078 =
2018-11-15 07:56 METAR KCXY 151256Z 11011KT 10SM FEW040 OVC110 00/M09 A3048 RMK AO2 SLP326
                 T00001089 =
2018-11-15 06:56 METAR KCXY 151156Z AUTO 10009KT 10SM CLR 01/M09 A3051 RMK AO2 SLP337 T00061089
                 10006 20000 55011 =
2018-11-15 05:56 METAR KCXY 151056Z AUTO 09006KT 10SM CLR 00/M08 A3050 RMK AO2 SLP332 T00001083 =
2018-11-15 04:56 METAR KCXY 150956Z AUTO 09008KT 10SM CLR 00/M08 A3051 RMK AO2 SLP337 T00001083 =
2018-11-15 03:56 METAR KCXY 150856Z AUTO 08006KT 10SM CLR 01/M08 A3054 RMK AO2 SLP348 T00061083
                 58006 =
2018-11-15 02:56 METAR KCXY 150756Z AUTO 08006KT 10SM CLR 00/M08 A3055 RMK AO2 SLP350 T00001083 =
2018-11-15 01:56 METAR KCXY 150656Z AUTO 10006KT 10SM CLR 01/M08 A3056 RMK AO2 SLP355 T00061083 =
2018-11-15 00:56 METAR KCXY 150556Z AUTO 08007KT 10SM CLR 01/M08 A3056 RMK AO2 SLP354 T00061078
                 10033 20006 50004 =
2018-11-14 23:56 METAR KCXY 150456Z AUTO 10010KT 10SM CLR 01/M08 A3056 RMK AO2 SLP355 T00111083
                 400560011 =
2018-11-14 22:56 METAR KCXY 150356Z AUTO 05006KT 10SM CLR 02/M09 A3056 RMK AO2 SLP352 T00171089 =
2018-11-14 21:56 METAR KCXY 150256Z AUTO 06007KT 10SM CLR 02/M08 A3055 RMK AO2 SLP350 T00171083
                 51013 =
2018-11-14 20:56 METAR KCXY 150156Z 02006KT 10SM CLR 03/M09 A3055 RMK AO2 SLP350 T00281089 =

Support USWX by starting your Amazon purchase here.